createdAt,value
2022-12-20T00:01:01.947Z,101290.81
2022-12-20T00:03:29.934Z,101300.09
2022-12-20T00:05:59.387Z,101291.22
2022-12-20T00:08:27.179Z,101278.75
2022-12-20T00:10:54.994Z,101278.75
2022-12-20T00:13:22.771Z,101283.81
2022-12-20T00:15:50.651Z,101271.63
2022-12-20T00:18:19.505Z,101279.16
2022-12-20T00:20:47.313Z,101265.97
2022-12-20T00:23:16.599Z,101263.50
2022-12-20T00:25:44.665Z,101259.44
2022-12-20T00:28:12.495Z,101257.69
2022-12-20T00:30:40.261Z,101252.75
2022-12-20T00:33:08.049Z,101255.09
2022-12-20T00:35:35.910Z,101256.81
2022-12-20T00:38:03.713Z,101255.09
2022-12-20T00:40:32.808Z,101255.97
2022-12-20T00:43:00.573Z,101249.56
2022-12-20T00:45:28.432Z,101254.50
2022-12-20T00:47:56.289Z,101258.44
2022-12-20T00:50:24.147Z,101259.28
2022-12-20T00:52:52.159Z,101230.50
2022-12-20T00:55:20.025Z,101246.09
2022-12-20T00:57:49.202Z,101251.91
2022-12-20T01:00:17.667Z,101257.69
2022-12-20T01:02:45.631Z,101254.50
2022-12-20T01:05:13.537Z,101245.63
2022-12-20T01:07:41.377Z,101253.31
2022-12-20T01:10:10.392Z,101258.38
2022-12-20T01:12:38.265Z,101257.63
2022-12-20T01:15:08.955Z,101255.91
2022-12-20T01:17:38.377Z,101256.97
2022-12-20T01:20:07.947Z,101259.09
2022-12-20T01:22:35.967Z,101239.50
2022-12-20T01:25:03.806Z,101243.72
2022-12-20T01:27:31.806Z,101234.72
2022-12-20T01:29:59.734Z,101212.09
2022-12-20T01:32:28.858Z,101223.59
2022-12-20T01:34:56.681Z,101222.88
2022-12-20T01:37:24.510Z,101235.81
2022-12-20T01:39:52.440Z,101244.22
2022-12-20T01:42:20.282Z,101248.28
2022-12-20T01:44:55.957Z,101244.94
2022-12-20T01:47:25.531Z,101249.16
2022-12-20T01:49:56.819Z,101232.59
2022-12-20T01:52:31.256Z,101225.22
2022-12-20T01:55:06.557Z,101203.00
2022-12-20T01:57:41.294Z,101191.41
2022-12-20T02:00:10.868Z,101180.06
2022-12-20T02:02:42.306Z,101177.59
2022-12-20T02:05:14.566Z,101181.81
2022-12-20T02:07:49.429Z,101188.19
2022-12-20T02:10:19.200Z,101188.47
2022-12-20T02:12:49.356Z,101178.81
2022-12-20T02:15:36.541Z,101181.81
2022-12-20T02:18:17.365Z,101167.72
2022-12-20T02:21:02.390Z,101175.13
2022-12-20T02:23:55.860Z,101168.72
2022-12-20T02:26:51.271Z,101154.66
2022-12-20T02:29:26.479Z,101155.41
2022-12-20T02:32:03.594Z,101136.66
2022-12-20T02:34:34.755Z,101129.50
2022-12-20T02:37:02.833Z,101127.19
2022-12-20T02:39:33.651Z,101130.38
2022-12-20T02:42:06.584Z,101140.97
2022-12-20T02:44:56.348Z,101143.31
2022-12-20T02:47:30.747Z,101143.78
2022-12-20T02:49:59.157Z,101137.13
2022-12-20T02:52:31.082Z,101139.84
2022-12-20T02:55:00.846Z,101137.25
2022-12-20T02:57:39.044Z,101129.34
2022-12-20T03:00:11.625Z,101130.22
2022-12-20T03:02:56.887Z,101125.53
2022-12-20T03:05:27.645Z,101135.38
2022-12-20T03:07:57.104Z,101130.47
2022-12-20T03:10:27.044Z,101135.16
2022-12-20T03:12:54.977Z,101128.50
2022-12-20T03:15:23.163Z,101137.84
2022-12-20T03:17:57.539Z,101136.53
2022-12-20T03:20:25.927Z,101135.19
2022-12-20T03:22:53.725Z,101141.72
2022-12-20T03:25:21.588Z,101148.66
2022-12-20T03:27:49.482Z,101139.78
2022-12-20T03:30:18.564Z,101133.25
2022-12-20T03:32:46.413Z,101130.03
2022-12-20T03:35:15.608Z,101132.00
2022-12-20T03:37:43.590Z,101120.41
2022-12-20T03:40:13.881Z,101117.94
2022-12-20T03:42:41.755Z,101121.91
2022-12-20T03:45:10.457Z,101123.63
2022-12-20T03:47:38.723Z,101125.34
2022-12-20T03:50:08.467Z,101120.41
2022-12-20T03:52:38.233Z,101120.16
2022-12-20T03:55:07.237Z,101124.25
2022-12-20T03:57:42.981Z,101122.25
2022-12-20T04:00:26.111Z,101110.72
2022-12-20T04:03:00.988Z,101110.22
2022-12-20T04:05:30.381Z,101109.97
2022-12-20T04:07:59.941Z,101104.00
2022-12-20T04:10:27.830Z,101120.16
2022-12-20T04:12:55.845Z,101117.56
2022-12-20T04:15:23.911Z,101118.56
2022-12-20T04:17:53.853Z,101112.28
2022-12-20T04:20:22.170Z,101102.44
2022-12-20T04:23:00.106Z,101103.31
2022-12-20T04:25:28.447Z,101097.63
2022-12-20T04:27:56.886Z,101098.63
2022-12-20T04:30:25.765Z,101084.69
2022-12-20T04:32:54.744Z,101093.44
2022-12-20T04:35:22.945Z,101095.78
2022-12-20T04:37:50.922Z,101097.63
2022-12-20T04:40:20.892Z,101098.91
2022-12-20T04:42:52.948Z,101095.19
2022-12-20T04:45:21.358Z,101104.56
2022-12-20T04:47:50.582Z,101114.44
2022-12-20T04:50:24.354Z,101110.25
2022-12-20T04:53:09.738Z,101119.13
2022-12-20T04:55:40.484Z,101125.53
2022-12-20T04:58:08.942Z,101103.09
2022-12-20T05:00:40.307Z,101099.38
2022-12-20T05:03:21.827Z,101096.44
2022-12-20T05:05:49.878Z,101090.63
2022-12-20T05:08:18.370Z,101080.66
2022-12-20T05:10:49.217Z,101079.38
2022-12-20T05:13:17.766Z,101074.81
2022-12-20T05:15:52.276Z,101045.44
2022-12-20T05:18:25.019Z,101067.50
2022-12-20T05:21:17.606Z,101066.50
2022-12-20T05:24:06.127Z,101068.25
2022-12-20T05:26:44.946Z,101063.31
2022-12-20T05:29:13.403Z,101061.84
2022-12-20T05:31:41.385Z,101065.16
2022-12-20T05:34:10.459Z,101065.03
2022-12-20T05:36:40.039Z,101059.25
2022-12-20T05:39:09.204Z,101059.38
2022-12-20T05:41:41.550Z,101051.97
2022-12-20T05:44:10.800Z,101061.56
2022-12-20T05:46:42.717Z,101057.38
2022-12-20T05:49:16.169Z,101049.75
2022-12-20T05:51:44.157Z,101057.03
2022-12-20T05:54:25.217Z,101058.63
2022-12-20T05:57:01.485Z,101055.28
2022-12-20T05:59:40.711Z,101061.69
2022-12-20T06:02:15.588Z,101055.09
2022-12-20T06:04:44.517Z,101060.81
2022-12-20T06:07:17.505Z,101057.34
2022-12-20T06:09:48.387Z,101067.22
2022-12-20T06:12:18.786Z,101062.28
2022-12-20T06:14:49.085Z,101047.50
2022-12-20T06:17:20.058Z,101046.63
2022-12-20T06:19:48.076Z,101042.50
2022-12-20T06:22:17.887Z,101052.75
2022-12-20T06:24:56.575Z,101038.50
2022-12-20T06:27:28.532Z,101056.66
2022-12-20T06:30:05.545Z,101055.81
2022-12-20T06:32:44.990Z,101063.94
2022-12-20T06:35:14.334Z,101070.59
2022-12-20T06:37:43.250Z,101044.91
2022-12-20T06:40:14.225Z,101073.53
2022-12-20T06:42:42.302Z,101075.59
2022-12-20T06:45:13.164Z,101064.88
2022-12-20T06:47:41.331Z,101060.81
2022-12-20T06:50:10.093Z,101060.19
2022-12-20T06:52:37.910Z,101065.88
2022-12-20T06:55:06.434Z,101069.78
2022-12-20T06:57:37.470Z,101065.13
2022-12-20T07:00:07.224Z,101050.13
2022-12-20T07:02:36.594Z,101048.22
2022-12-20T07:05:04.791Z,101059.03
2022-12-20T07:07:33.759Z,101060.53
2022-12-20T07:10:04.527Z,101066.94
2022-12-20T07:12:33.301Z,101045.94
2022-12-20T07:15:01.287Z,101058.69
2022-12-20T07:17:29.133Z,101058.63
2022-12-20T07:19:58.285Z,101051.97
2022-12-20T07:22:26.085Z,101046.69
2022-12-20T07:24:54.105Z,101044.75
2022-12-20T07:27:22.143Z,101018.56
2022-12-20T07:29:49.989Z,101048.75
2022-12-20T07:32:18.033Z,101055.28
2022-12-20T07:34:45.886Z,101068.88
2022-12-20T07:37:15.117Z,101079.22
2022-12-20T07:39:43.308Z,101083.69
2022-12-20T07:42:12.399Z,101070.09
2022-12-20T07:44:43.781Z,101062.72
2022-12-20T07:47:11.713Z,101048.63
2022-12-20T07:49:39.499Z,101058.28
2022-12-20T07:52:12.173Z,101050.88
2022-12-20T07:54:46.929Z,101038.25
2022-12-20T07:57:19.738Z,101028.00
2022-12-20T07:59:53.377Z,101015.78
2022-12-20T08:02:24.902Z,101014.03
2022-12-20T08:04:54.870Z,101021.84
2022-12-20T08:07:23.127Z,101023.66
2022-12-20T08:09:52.783Z,101022.03
2022-12-20T08:12:21.666Z,101019.69
2022-12-20T08:14:52.370Z,101021.69
2022-12-20T08:17:20.309Z,101018.59
2022-12-20T08:19:48.850Z,101012.28
2022-12-20T08:22:16.751Z,100998.56
2022-12-20T08:24:44.583Z,100996.19
2022-12-20T08:27:13.982Z,100992.09
2022-12-20T08:29:41.900Z,100974.72
2022-12-20T08:32:10.129Z,100973.44
2022-12-20T08:34:38.179Z,100980.13
2022-12-20T08:37:10.734Z,100989.50
2022-12-20T08:39:42.458Z,100994.19
2022-12-20T08:42:10.250Z,100993.47
2022-12-20T08:44:39.356Z,100993.56
2022-12-20T08:47:07.291Z,101004.31
2022-12-20T08:49:35.145Z,101009.00
2022-12-20T08:52:03.037Z,101013.31
2022-12-20T08:54:30.822Z,101019.66
2022-12-20T08:56:58.751Z,101040.44
2022-12-20T08:59:26.708Z,101039.47
2022-12-20T09:01:55.950Z,101042.31
2022-12-20T09:04:23.854Z,101059.22
2022-12-20T09:06:51.763Z,101051.59
2022-12-20T09:09:19.692Z,101047.03
2022-12-20T09:11:47.628Z,101058.50
2022-12-20T09:14:15.505Z,101054.56
2022-12-20T09:16:43.262Z,101056.53
2022-12-20T09:19:14.328Z,101044.94
2022-12-20T09:21:42.615Z,101040.72
2022-12-20T09:24:11.487Z,101030.84
2022-12-20T09:26:40.815Z,101019.81
2022-12-20T09:29:08.706Z,101005.72
2022-12-20T09:31:37.019Z,100994.56
2022-12-20T09:34:05.542Z,100985.84
2022-12-20T09:36:34.817Z,100974.53
2022-12-20T09:39:02.825Z,100967.31
2022-12-20T09:41:34.685Z,100964.03
2022-12-20T09:44:11.573Z,100963.19
2022-12-20T09:46:40.360Z,100967.34
2022-12-20T09:49:12.591Z,100972.97
2022-12-20T09:51:57.495Z,100972.34
2022-12-20T09:54:35.442Z,100957.81
2022-12-20T09:57:08.970Z,100941.00
2022-12-20T09:59:44.497Z,100943.19
2022-12-20T10:02:54.449Z,100940.41
2022-12-20T10:05:16.534Z,100943.09
2022-12-20T10:07:54.977Z,100950.13
2022-12-20T10:10:46.504Z,100942.81
2022-12-20T10:13:37.930Z,100937.34
2022-12-20T10:16:19.347Z,100930.09
2022-12-20T10:18:58.374Z,100926.88
2022-12-20T10:21:35.446Z,100919.66
2022-12-20T10:24:11.249Z,100926.44
2022-12-20T10:26:39.513Z,100931.41
2022-12-20T10:29:07.669Z,100921.38
2022-12-20T10:31:36.635Z,100898.97
2022-12-20T10:34:04.523Z,100900.38
2022-12-20T10:36:33.821Z,100884.34
2022-12-20T10:39:03.191Z,100882.50
2022-12-20T10:41:34.801Z,100897.13
2022-12-20T10:44:05.013Z,100899.47
2022-12-20T10:46:38.629Z,100889.31
2022-12-20T10:49:31.616Z,100880.59
2022-12-20T10:52:02.946Z,100861.72
2022-12-20T10:54:35.403Z,100865.28
2022-12-20T10:57:16.619Z,100866.28
2022-12-20T10:59:49.112Z,100860.03
2022-12-20T11:02:38.924Z,100851.34
2022-12-20T11:05:23.740Z,100840.69
2022-12-20T11:10:45.983Z,100827.56
2022-12-20T11:13:25.736Z,100822.91
2022-12-20T11:15:57.829Z,100812.91
2022-12-20T11:18:38.790Z,100800.53
2022-12-20T11:21:27.389Z,100800.53
2022-12-20T11:24:03.545Z,100791.81
2022-12-20T11:26:43.650Z,100783.66
2022-12-20T11:29:26.184Z,100775.50
2022-12-20T11:32:02.565Z,100774.22
2022-12-20T11:34:40.190Z,100787.13
2022-12-20T11:37:19.187Z,100783.25
2022-12-20T11:40:01.748Z,100788.84
2022-12-20T11:42:38.875Z,100784.09
2022-12-20T11:45:16.473Z,100793.59
2022-12-20T11:48:05.411Z,100788.22
2022-12-20T11:50:47.506Z,100779.81
2022-12-20T11:53:24.010Z,100774.66
2022-12-20T11:55:55.430Z,100773.69
2022-12-20T11:58:27.958Z,100768.31
2022-12-20T12:01:01.967Z,100751.63
2022-12-20T12:03:35.129Z,100770.00
2022-12-20T12:06:06.339Z,100759.13
2022-12-20T12:08:49.139Z,100756.13
2022-12-20T12:11:56.165Z,100750.28
2022-12-20T12:14:18.788Z,100747.69
2022-12-20T12:16:53.432Z,100742.75
2022-12-20T12:19:22.346Z,100743.81
2022-12-20T12:21:58.201Z,100731.88
2022-12-20T12:24:30.484Z,100737.34
2022-12-20T12:27:00.395Z,100738.00
2022-12-20T12:29:30.737Z,100728.09
2022-12-20T12:32:05.793Z,100724.97
2022-12-20T12:34:58.433Z,100702.00
2022-12-20T12:37:49.734Z,100719.63
2022-12-20T12:40:34.856Z,100717.75
2022-12-20T12:43:23.792Z,100707.94
2022-12-20T12:45:57.466Z,100676.34
2022-12-20T12:48:36.699Z,100695.56
2022-12-20T12:51:06.017Z,100697.72
2022-12-20T12:53:38.377Z,100700.97
2022-12-20T12:56:46.724Z,100700.75
2022-12-20T12:59:25.511Z,100698.09
2022-12-20T13:01:55.770Z,100706.28
2022-12-20T13:04:29.301Z,100697.13
2022-12-20T13:07:00.083Z,100675.47
2022-12-20T13:09:42.414Z,100670.97
2022-12-20T13:12:51.329Z,100665.59
2022-12-20T13:15:51.912Z,100665.09
2022-12-20T13:18:30.243Z,100658.97
2022-12-20T13:21:28.398Z,100668.66
2022-12-20T13:24:38.740Z,100669.53
2022-12-20T13:27:27.731Z,100673.41
2022-12-20T13:30:18.866Z,100679.03
2022-12-20T13:33:23.864Z,100679.59
2022-12-20T13:36:03.695Z,100680.13
2022-12-20T13:38:57.712Z,100669.25
2022-12-20T13:41:38.771Z,100671.50
2022-12-20T13:44:40.710Z,100676.25
2022-12-20T13:47:35.270Z,100684.47
2022-12-20T13:50:22.722Z,100671.75
2022-12-20T13:52:50.698Z,100668.09
2022-12-20T13:55:27.783Z,100668.75
2022-12-20T13:57:56.052Z,100664.34
2022-12-20T14:00:27.213Z,100679.75
2022-12-20T14:02:55.866Z,100682.13
2022-12-20T14:05:26.526Z,100687.81
2022-12-20T14:08:00.411Z,100679.31
2022-12-20T14:10:31.332Z,100668.56
2022-12-20T14:12:59.227Z,100666.72
2022-12-20T14:15:30.226Z,100656.97
2022-12-20T14:17:58.848Z,100674.38
2022-12-20T14:20:32.267Z,100677.50
2022-12-20T14:23:06.298Z,100664.47
2022-12-20T14:25:44.248Z,100676.09
2022-12-20T14:28:27.640Z,100658.25
2022-12-20T14:30:57.290Z,100636.28
2022-12-20T14:33:31.187Z,100640.84
2022-12-20T14:36:08.274Z,100654.81
2022-12-20T14:38:36.127Z,100666.00
2022-12-20T14:41:05.527Z,100670.50
2022-12-20T14:43:35.928Z,100680.38
2022-12-20T14:46:18.546Z,100678.66
2022-12-20T14:48:47.227Z,100661.22
2022-12-20T14:51:21.472Z,100657.72
2022-12-20T14:53:53.178Z,100645.53
2022-12-20T14:56:31.390Z,100653.06
2022-12-20T14:59:14.567Z,100624.25
2022-12-20T15:01:44.415Z,100644.69
2022-12-20T15:04:24.046Z,100648.47
2022-12-20T15:06:53.232Z,100640.81
2022-12-20T15:09:21.634Z,100634.16
2022-12-20T15:11:52.548Z,100634.16
2022-12-20T15:14:32.914Z,100632.09
2022-12-20T15:17:00.885Z,100635.22
2022-12-20T15:19:28.806Z,100636.94
2022-12-20T15:21:56.763Z,100629.50
2022-12-20T15:24:26.512Z,100638.66
2022-12-20T15:26:56.495Z,100632.00
2022-12-20T15:29:26.657Z,100635.75
2022-12-20T15:32:01.127Z,100621.69
2022-12-20T15:34:33.711Z,100613.81
2022-12-20T15:37:02.630Z,100637.78
2022-12-20T15:39:31.032Z,100628.75
2022-12-20T15:42:03.884Z,100643.59
2022-12-20T15:44:32.968Z,100628.31
2022-12-20T15:47:00.904Z,100628.31
2022-12-20T15:49:31.329Z,100616.69
2022-12-20T15:51:59.854Z,100610.25
2022-12-20T15:54:30.947Z,100609.63
2022-12-20T15:57:03.350Z,100602.31
2022-12-20T15:59:58.867Z,100591.56
2022-12-20T16:02:23.310Z,100601.34
2022-12-20T16:04:52.339Z,100610.69
2022-12-20T16:07:20.692Z,100624.97
2022-12-20T16:09:48.894Z,100603.59
2022-12-20T16:12:22.323Z,100623.81
2022-12-20T16:14:51.401Z,100618.19
2022-12-20T16:17:19.378Z,100604.56
2022-12-20T16:19:48.257Z,100606.81
2022-12-20T16:22:18.498Z,100599.94
2022-12-20T16:24:47.249Z,100600.69
2022-12-20T16:27:15.341Z,100606.13
2022-12-20T16:29:45.403Z,100575.16
2022-12-20T16:32:16.406Z,100606.69
2022-12-20T16:34:45.342Z,100619.22
2022-12-20T16:37:13.628Z,100613.53
2022-12-20T16:39:42.252Z,100613.03
2022-12-20T16:42:15.052Z,100561.66
2022-12-20T16:44:46.138Z,100609.28
2022-12-20T16:47:15.130Z,100603.88
2022-12-20T16:49:51.777Z,100611.06
2022-12-20T16:52:21.754Z,100619.91
2022-12-20T16:54:49.917Z,100618.41
2022-12-20T16:57:17.981Z,100617.78
2022-12-20T16:59:47.188Z,100611.97
2022-12-20T17:02:26.898Z,100619.50
2022-12-20T17:04:55.053Z,100618.66
2022-12-20T17:07:22.879Z,100611.34
2022-12-20T17:09:50.845Z,100610.50
2022-12-20T17:12:21.125Z,100609.00
2022-12-20T17:14:50.480Z,100603.94
2022-12-20T17:17:18.476Z,100584.47
2022-12-20T17:19:46.323Z,100595.03
2022-12-20T17:22:23.775Z,100596.06
2022-12-20T17:24:51.773Z,100582.00
2022-12-20T17:27:19.655Z,100584.47
2022-12-20T17:29:47.464Z,100572.88
2022-12-20T17:32:21.817Z,100576.31
2022-12-20T17:34:50.101Z,100581.47
2022-12-20T17:37:18.219Z,100579.00
2022-12-20T17:39:46.245Z,100584.69
2022-12-20T17:42:14.770Z,100573.94
2022-12-20T17:44:42.651Z,100562.13
2022-12-20T17:47:11.632Z,100576.75
2022-12-20T17:49:41.120Z,100578.69
2022-12-20T17:52:13.692Z,100579.66
2022-12-20T17:54:41.605Z,100584.91
2022-12-20T17:57:14.613Z,100591.78
2022-12-20T17:59:42.599Z,100595.13
2022-12-20T18:02:21.001Z,100586.00
2022-12-20T18:04:51.051Z,100592.66
2022-12-20T18:07:18.999Z,100596.75
2022-12-20T18:09:47.816Z,100588.69
2022-12-20T18:12:15.689Z,100582.53
2022-12-20T18:14:43.599Z,100587.28
2022-12-20T18:17:11.879Z,100580.63
2022-12-20T18:19:40.525Z,100577.19
2022-12-20T18:22:09.794Z,100583.09
2022-12-20T18:24:37.682Z,100591.38
2022-12-20T18:27:05.596Z,100588.91
2022-12-20T18:29:33.728Z,100588.81
2022-12-20T18:32:01.691Z,100590.31
2022-12-20T18:34:29.799Z,100588.59
2022-12-20T18:36:57.726Z,100600.19
2022-12-20T18:39:26.900Z,100594.78
2022-12-20T18:41:54.699Z,100576.84
2022-12-20T18:44:22.611Z,100577.59
2022-12-20T18:46:50.437Z,100589.31
2022-12-20T18:49:18.313Z,100584.50
2022-12-20T18:51:46.218Z,100577.19
2022-12-20T18:54:14.918Z,100573.09
2022-12-20T18:56:44.112Z,100564.94
2022-12-20T18:59:13.111Z,100574.81
2022-12-20T19:01:42.495Z,100567.50
2022-12-20T19:04:11.827Z,100569.34
2022-12-20T19:06:40.094Z,100570.31
2022-12-20T19:09:11.135Z,100577.50
2022-12-20T19:11:39.293Z,100595.69
2022-12-20T19:14:08.717Z,100564.94
2022-12-20T19:16:39.551Z,100579.13
2022-12-20T19:19:09.195Z,100562.69
2022-12-20T19:21:38.828Z,100553.53
2022-12-20T19:24:07.991Z,100556.22
2022-12-20T19:26:37.792Z,100544.41
2022-12-20T19:29:08.030Z,100552.34
2022-12-20T19:31:37.604Z,100556.66
2022-12-20T19:34:08.328Z,100544.28
2022-12-20T19:36:39.136Z,100572.44
2022-12-20T19:39:08.987Z,100563.88
2022-12-20T19:41:36.996Z,100560.94
2022-12-20T19:44:06.090Z,100532.69
2022-12-20T19:46:36.201Z,100553.44
2022-12-20T19:49:04.471Z,100566.44
2022-12-20T19:51:32.696Z,100548.28
2022-12-20T19:54:00.951Z,100550.19
2022-12-20T19:56:31.503Z,100538.63
2022-12-20T19:58:59.362Z,100536.69
2022-12-20T20:01:28.234Z,100532.50
2022-12-20T20:04:00.035Z,100524.09
2022-12-20T20:06:29.091Z,100533.13
2022-12-20T20:08:59.528Z,100529.03
2022-12-20T20:11:28.943Z,100522.59
2022-12-20T20:13:57.049Z,100507.78
2022-12-20T20:16:25.103Z,100520.84
2022-12-20T20:18:53.547Z,100525.28
2022-12-20T20:21:24.315Z,100520.44
2022-12-20T20:23:53.365Z,100511.50
2022-12-20T20:26:23.004Z,100520.66
2022-12-20T20:28:51.317Z,100513.34
2022-12-20T20:31:20.737Z,100493.78
2022-12-20T20:33:49.373Z,100500.34
2022-12-20T20:36:19.320Z,100498.06
2022-12-20T20:38:49.532Z,100491.31
2022-12-20T20:41:17.945Z,100479.69
2022-12-20T20:43:46.013Z,100490.78
2022-12-20T20:46:16.209Z,100484.84
2022-12-20T20:48:45.276Z,100469.16
2022-12-20T20:51:13.617Z,100464.31
2022-12-20T20:53:42.104Z,100470.78
2022-12-20T20:56:11.746Z,100479.38
2022-12-20T20:58:39.904Z,100471.84
2022-12-20T21:01:09.791Z,100442.31
2022-12-20T21:03:38.346Z,100470.44
2022-12-20T21:06:38.701Z,100467.97
2022-12-20T21:08:55.616Z,100456.81
2022-12-20T21:11:25.538Z,100465.19
2022-12-20T21:13:54.658Z,100461.09
2022-12-20T21:16:24.500Z,100447.34
2022-12-20T21:18:52.978Z,100437.28
2022-12-20T21:21:21.642Z,100462.28
2022-12-20T21:23:49.869Z,100461.31
2022-12-20T21:26:19.688Z,100440.25
2022-12-20T21:28:49.313Z,100441.94
2022-12-20T21:31:18.702Z,100435.31
2022-12-20T21:33:47.004Z,100428.22
2022-12-20T21:36:20.333Z,100425.84
2022-12-20T21:38:50.291Z,100405.91
2022-12-20T21:41:20.217Z,100401.34
2022-12-20T21:43:49.439Z,100397.38
2022-12-20T21:46:17.276Z,100390.16
2022-12-20T21:48:46.903Z,100395.31
2022-12-20T21:51:16.714Z,100390.28
2022-12-20T21:53:46.645Z,100383.06
2022-12-20T21:56:15.768Z,100377.69
2022-12-20T21:58:43.900Z,100378.22
2022-12-20T22:01:15.773Z,100370.59
2022-12-20T22:03:44.670Z,100368.88
2022-12-20T22:06:13.176Z,100363.09
2022-12-20T22:08:41.003Z,100360.06
2022-12-20T22:11:10.912Z,100361.13
2022-12-20T22:13:41.922Z,100339.22
2022-12-20T22:16:12.000Z,100338.47
2022-12-20T22:18:42.137Z,100339.63
2022-12-20T22:21:12.273Z,100344.97
2022-12-20T22:23:40.581Z,100352.53
2022-12-20T22:26:10.688Z,100357.28
2022-12-20T22:28:40.968Z,100361.53
2022-12-20T22:31:09.765Z,100375.41
2022-12-20T22:33:38.150Z,100379.50
2022-12-20T22:36:09.188Z,100373.94
2022-12-20T22:38:37.073Z,100356.78
2022-12-20T22:41:09.485Z,100367.19
2022-12-20T22:43:37.823Z,100350.16
2022-12-20T22:46:06.585Z,100368.59
2022-12-20T22:48:34.846Z,100365.06
2022-12-20T22:51:04.655Z,100357.84
2022-12-20T22:53:34.684Z,100375.88
2022-12-20T22:56:02.650Z,100373.53
2022-12-20T22:58:31.352Z,100375.34
2022-12-20T23:01:00.537Z,100381.06
2022-12-20T23:03:30.041Z,100379.34
2022-12-20T23:05:59.487Z,100374.59
2022-12-20T23:08:28.898Z,100354.41
2022-12-20T23:11:15.667Z,100354.41
2022-12-20T23:14:01.871Z,100367.84
2022-12-20T23:16:30.163Z,100357.84
2022-12-20T23:18:59.053Z,100360.81
2022-12-20T23:21:45.177Z,100353.84
2022-12-20T23:24:14.667Z,100353.63
2022-12-20T23:26:44.076Z,100348.09
2022-12-20T23:29:14.234Z,100348.75
2022-12-20T23:31:42.304Z,100339.56
2022-12-20T23:34:10.189Z,100341.81
2022-12-20T23:36:38.631Z,100331.00
2022-12-20T23:39:06.806Z,100332.69
2022-12-20T23:41:35.045Z,100326.25
2022-12-20T23:44:06.033Z,100321.88
2022-12-20T23:46:34.638Z,100314.34
2022-12-20T23:49:02.642Z,100312.97
2022-12-20T23:51:30.510Z,100314.25
2022-12-20T23:53:58.306Z,100318.59
2022-12-20T23:56:26.094Z,100310.22
2022-12-20T23:58:55.699Z,100310.75
